sensor_id;sensor_type;location;lat;lon;timestamp;pressure;altitude;pressure_sealevel;temperature;humidity
21779;BME280;11050;52.222;20.916;2022-08-03T00:00:52;100376.41;;;19.65;100.00
21779;BME280;11050;52.222;20.916;2022-08-03T00:03:17;100377.69;;;19.59;100.00
21779;BME280;11050;52.222;20.916;2022-08-03T00:05:43;100371.69;;;19.52;100.00
21779;BME280;11050;52.222;20.916;2022-08-03T00:08:09;100370.03;;;19.51;100.00
21779;BME280;11050;52.222;20.916;2022-08-03T00:10:35;100380.69;;;19.49;100.00
21779;BME280;11050;52.222;20.916;2022-08-03T00:13:00;100373.75;;;19.46;100.00
21779;BME280;11050;52.222;20.916;2022-08-03T00:15:26;100367.47;;;19.41;100.00
21779;BME280;11050;52.222;20.916;2022-08-03T00:17:52;100364.16;;;19.39;100.00
21779;BME280;11050;52.222;20.916;2022-08-03T00:20:18;100370.25;;;19.41;100.00
21779;BME280;11050;52.222;20.916;2022-08-03T00:22:43;100376.66;;;19.41;100.00
21779;BME280;11050;52.222;20.916;2022-08-03T00:25:09;100378.63;;;19.41;100.00
21779;BME280;11050;52.222;20.916;2022-08-03T00:27:35;100378.09;;;19.39;100.00
21779;BME280;11050;52.222;20.916;2022-08-03T00:30:01;100372.00;;;19.37;100.00
21779;BME280;11050;52.222;20.916;2022-08-03T00:32:27;100373.47;;;19.34;100.00
21779;BME280;11050;52.222;20.916;2022-08-03T00:34:52;100380.75;;;19.30;100.00
21779;BME280;11050;52.222;20.916;2022-08-03T00:37:18;100379.72;;;19.26;100.00
21779;BME280;11050;52.222;20.916;2022-08-03T00:39:44;100368.69;;;19.21;100.00
21779;BME280;11050;52.222;20.916;2022-08-03T00:42:12;100373.22;;;19.17;100.00
21779;BME280;11050;52.222;20.916;2022-08-03T00:44:42;100378.59;;;19.14;100.00
21779;BME280;11050;52.222;20.916;2022-08-03T00:47:10;100371.66;;;19.11;100.00
21779;BME280;11050;52.222;20.916;2022-08-03T00:49:38;100373.94;;;19.09;100.00
21779;BME280;11050;52.222;20.916;2022-08-03T00:52:07;100368.75;;;19.03;100.00
21779;BME280;11050;52.222;20.916;2022-08-03T00:54:37;100373.53;;;19.02;100.00
21779;BME280;11050;52.222;20.916;2022-08-03T00:57:04;100377.94;;;19.03;100.00
21779;BME280;11050;52.222;20.916;2022-08-03T00:59:29;100380.41;;;19.05;100.00
21779;BME280;11050;52.222;20.916;2022-08-03T01:01:56;100381.25;;;19.05;100.00
21779;BME280;11050;52.222;20.916;2022-08-03T01:04:22;100381.56;;;19.04;100.00
21779;BME280;11050;52.222;20.916;2022-08-03T01:06:59;100376.53;;;19.06;100.00
21779;BME280;11050;52.222;20.916;2022-08-03T01:10:06;100384.34;;;19.04;100.00
21779;BME280;11050;52.222;20.916;2022-08-03T01:12:42;100374.97;;;19.00;100.00
21779;BME280;11050;52.222;20.916;2022-08-03T01:15:30;100374.22;;;18.94;100.00
21779;BME280;11050;52.222;20.916;2022-08-03T01:20:34;100385.56;;;18.84;100.00
21779;BME280;11050;52.222;20.916;2022-08-03T01:26:47;100379.97;;;18.84;100.00
21779;BME280;11050;52.222;20.916;2022-08-03T01:29:56;100386.38;;;18.84;100.00
21779;BME280;11050;52.222;20.916;2022-08-03T01:32:49;100378.56;;;18.86;100.00
21779;BME280;11050;52.222;20.916;2022-08-03T01:35:27;100377.72;;;18.86;100.00
21779;BME280;11050;52.222;20.916;2022-08-03T01:38:00;100388.53;;;18.87;100.00
21779;BME280;11050;52.222;20.916;2022-08-03T01:40:28;100380.81;;;18.84;100.00
21779;BME280;11050;52.222;20.916;2022-08-03T01:43:01;100376.66;;;18.82;100.00
21779;BME280;11050;52.222;20.916;2022-08-03T01:45:29;100383.50;;;18.76;100.00
21779;BME280;11050;52.222;20.916;2022-08-03T01:47:57;100379.94;;;18.70;100.00
21779;BME280;11050;52.222;20.916;2022-08-03T01:50:28;100378.00;;;18.71;100.00
21779;BME280;11050;52.222;20.916;2022-08-03T01:52:56;100373.03;;;18.68;100.00
21779;BME280;11050;52.222;20.916;2022-08-03T01:55:25;100369.44;;;18.67;100.00
21779;BME280;11050;52.222;20.916;2022-08-03T01:57:55;100370.06;;;18.64;100.00
21779;BME280;11050;52.222;20.916;2022-08-03T02:00:24;100361.78;;;18.59;100.00
21779;BME280;11050;52.222;20.916;2022-08-03T02:02:53;100357.88;;;18.60;100.00
21779;BME280;11050;52.222;20.916;2022-08-03T02:05:20;100364.75;;;18.63;100.00
21779;BME280;11050;52.222;20.916;2022-08-03T02:07:49;100360.66;;;18.60;100.00
21779;BME280;11050;52.222;20.916;2022-08-03T02:10:20;100354.25;;;18.60;100.00
21779;BME280;11050;52.222;20.916;2022-08-03T02:12:49;100356.72;;;18.61;100.00
21779;BME280;11050;52.222;20.916;2022-08-03T02:15:18;100353.94;;;18.61;100.00
21779;BME280;11050;52.222;20.916;2022-08-03T02:17:46;100354.88;;;18.57;100.00
21779;BME280;11050;52.222;20.916;2022-08-03T02:20:14;100347.94;;;18.54;100.00
21779;BME280;11050;52.222;20.916;2022-08-03T02:22:42;100350.44;;;18.56;100.00
21779;BME280;11050;52.222;20.916;2022-08-03T02:25:11;100355.47;;;18.54;100.00
21779;BME280;11050;52.222;20.916;2022-08-03T02:27:45;100348.56;;;18.51;100.00
21779;BME280;11050;52.222;20.916;2022-08-03T02:30:14;100345.28;;;18.49;100.00
21779;BME280;11050;52.222;20.916;2022-08-03T02:32:45;100354.72;;;18.48;100.00
21779;BME280;11050;52.222;20.916;2022-08-03T02:35:15;100353.41;;;18.46;100.00
21779;BME280;11050;52.222;20.916;2022-08-03T02:37:50;100352.56;;;18.45;100.00
21779;BME280;11050;52.222;20.916;2022-08-03T02:40:19;100354.22;;;18.46;100.00
21779;BME280;11050;52.222;20.916;2022-08-03T02:42:52;100353.44;;;18.41;100.00
21779;BME280;11050;52.222;20.916;2022-08-03T02:45:23;100362.19;;;18.34;100.00
21779;BME280;11050;52.222;20.916;2022-08-03T02:47:55;100364.31;;;18.24;100.00
21779;BME280;11050;52.222;20.916;2022-08-03T02:50:24;100365.44;;;18.23;100.00
21779;BME280;11050;52.222;20.916;2022-08-03T02:52:52;100364.31;;;18.24;100.00
21779;BME280;11050;52.222;20.916;2022-08-03T02:55:21;100362.47;;;18.33;100.00
21779;BME280;11050;52.222;20.916;2022-08-03T02:57:48;100364.06;;;18.39;100.00
21779;BME280;11050;52.222;20.916;2022-08-03T03:00:15;100374.00;;;18.45;100.00
21779;BME280;11050;52.222;20.916;2022-08-03T03:02:42;100371.97;;;18.50;100.00
21779;BME280;11050;52.222;20.916;2022-08-03T03:05:10;100368.59;;;18.53;100.00
21779;BME280;11050;52.222;20.916;2022-08-03T03:07:37;100371.56;;;18.57;100.00
21779;BME280;11050;52.222;20.916;2022-08-03T03:10:06;100372.91;;;18.59;100.00
21779;BME280;11050;52.222;20.916;2022-08-03T03:12:35;100375.91;;;18.63;100.00
21779;BME280;11050;52.222;20.916;2022-08-03T03:15:03;100372.00;;;18.64;100.00
21779;BME280;11050;52.222;20.916;2022-08-03T03:17:30;100378.69;;;18.63;100.00
21779;BME280;11050;52.222;20.916;2022-08-03T03:19:58;100385.19;;;18.58;100.00
21779;BME280;11050;52.222;20.916;2022-08-03T03:22:26;100376.84;;;18.58;100.00
21779;BME280;11050;52.222;20.916;2022-08-03T03:24:54;100375.63;;;18.64;100.00
21779;BME280;11050;52.222;20.916;2022-08-03T03:27:21;100381.63;;;18.71;100.00
21779;BME280;11050;52.222;20.916;2022-08-03T03:29:48;100389.28;;;18.79;100.00
21779;BME280;11050;52.222;20.916;2022-08-03T03:32:14;100380.50;;;18.86;100.00
21779;BME280;11050;52.222;20.916;2022-08-03T03:34:42;100376.19;;;18.93;100.00
21779;BME280;11050;52.222;20.916;2022-08-03T03:37:08;100383.94;;;18.97;100.00
21779;BME280;11050;52.222;20.916;2022-08-03T03:39:33;100381.56;;;19.04;100.00
21779;BME280;11050;52.222;20.916;2022-08-03T03:42:01;100385.81;;;19.15;100.00
21779;BME280;11050;52.222;20.916;2022-08-03T03:44:29;100380.03;;;19.25;100.00
21779;BME280;11050;52.222;20.916;2022-08-03T03:46:58;100375.75;;;19.32;100.00
21779;BME280;11050;52.222;20.916;2022-08-03T03:49:25;100382.44;;;19.45;100.00
21779;BME280;11050;52.222;20.916;2022-08-03T03:51:54;100388.53;;;19.47;100.00
21779;BME280;11050;52.222;20.916;2022-08-03T03:54:20;100381.09;;;19.56;100.00
21779;BME280;11050;52.222;20.916;2022-08-03T03:56:47;100395.66;;;19.66;100.00
21779;BME280;11050;52.222;20.916;2022-08-03T03:59:13;100384.44;;;19.80;100.00
21779;BME280;11050;52.222;20.916;2022-08-03T04:01:38;100391.97;;;19.93;100.00
21779;BME280;11050;52.222;20.916;2022-08-03T04:04:05;100380.38;;;20.00;100.00
21779;BME280;11050;52.222;20.916;2022-08-03T04:06:49;100397.28;;;20.17;100.00
21779;BME280;11050;52.222;20.916;2022-08-03T04:09:37;100392.50;;;20.31;100.00
21779;BME280;11050;52.222;20.916;2022-08-03T04:12:25;100400.31;;;20.42;100.00
21779;BME280;11050;52.222;20.916;2022-08-03T04:14:55;100403.50;;;20.49;100.00
21779;BME280;11050;52.222;20.916;2022-08-03T04:17:26;100403.38;;;20.54;100.00
21779;BME280;11050;52.222;20.916;2022-08-03T04:19:54;100404.38;;;20.58;100.00
21779;BME280;11050;52.222;20.916;2022-08-03T04:22:26;100406.22;;;20.63;100.00
21779;BME280;11050;52.222;20.916;2022-08-03T04:25:00;100409.50;;;20.65;100.00
21779;BME280;11050;52.222;20.916;2022-08-03T04:27:35;100411.50;;;20.64;100.00
21779;BME280;11050;52.222;20.916;2022-08-03T04:30:05;100421.50;;;20.65;100.00
21779;BME280;11050;52.222;20.916;2022-08-03T04:32:32;100418.06;;;20.68;100.00
21779;BME280;11050;52.222;20.916;2022-08-03T04:35:00;100420.94;;;20.77;100.00
21779;BME280;11050;52.222;20.916;2022-08-03T04:37:50;100434.44;;;20.84;100.00
21779;BME280;11050;52.222;20.916;2022-08-03T04:40:32;100427.47;;;20.95;100.00
21779;BME280;11050;52.222;20.916;2022-08-03T04:42:59;100436.84;;;20.99;100.00
21779;BME280;11050;52.222;20.916;2022-08-03T04:45:27;100430.00;;;21.05;100.00
21779;BME280;11050;52.222;20.916;2022-08-03T04:47:56;100426.28;;;21.09;100.00
21779;BME280;11050;52.222;20.916;2022-08-03T04:50:22;100438.47;;;21.13;100.00
21779;BME280;11050;52.222;20.916;2022-08-03T04:52:48;100440.09;;;21.14;100.00
21779;BME280;11050;52.222;20.916;2022-08-03T04:55:28;100445.06;;;21.17;100.00
21779;BME280;11050;52.222;20.916;2022-08-03T04:57:55;100440.66;;;21.25;100.00
21779;BME280;11050;52.222;20.916;2022-08-03T05:00:22;100445.78;;;21.31;100.00
21779;BME280;11050;52.222;20.916;2022-08-03T05:02:48;100449.78;;;21.39;100.00
21779;BME280;11050;52.222;20.916;2022-08-03T05:05:15;100447.47;;;21.41;100.00
21779;BME280;11050;52.222;20.916;2022-08-03T05:07:42;100440.59;;;21.47;100.00
21779;BME280;11050;52.222;20.916;2022-08-03T05:10:09;100440.00;;;21.58;100.00
21779;BME280;11050;52.222;20.916;2022-08-03T05:12:36;100452.53;;;21.69;100.00
21779;BME280;11050;52.222;20.916;2022-08-03T05:15:02;100449.41;;;21.71;100.00
21779;BME280;11050;52.222;20.916;2022-08-03T05:17:29;100451.41;;;21.79;100.00
21779;BME280;11050;52.222;20.916;2022-08-03T05:19:55;100450.31;;;21.89;100.00
21779;BME280;11050;52.222;20.916;2022-08-03T05:22:22;100451.31;;;21.93;99.72
21779;BME280;11050;52.222;20.916;2022-08-03T05:24:48;100455.44;;;21.95;99.15
21779;BME280;11050;52.222;20.916;2022-08-03T05:27:14;100455.94;;;21.97;98.98
21779;BME280;11050;52.222;20.916;2022-08-03T05:29:48;100457.59;;;21.98;98.44
21779;BME280;11050;52.222;20.916;2022-08-03T05:32:16;100456.94;;;22.01;98.16
21779;BME280;11050;52.222;20.916;2022-08-03T05:34:42;100461.22;;;22.07;97.45
21779;BME280;11050;52.222;20.916;2022-08-03T05:37:09;100462.72;;;22.13;96.83
21779;BME280;11050;52.222;20.916;2022-08-03T05:39:35;100457.13;;;22.13;96.42
21779;BME280;11050;52.222;20.916;2022-08-03T05:42:01;100459.25;;;22.08;96.47
21779;BME280;11050;52.222;20.916;2022-08-03T05:44:27;100463.50;;;21.97;96.87
21779;BME280;11050;52.222;20.916;2022-08-03T05:46:53;100471.22;;;21.91;97.23
21779;BME280;11050;52.222;20.916;2022-08-03T05:49:19;100470.25;;;21.87;97.46
21779;BME280;11050;52.222;20.916;2022-08-03T05:51:46;100475.84;;;21.87;97.34
21779;BME280;11050;52.222;20.916;2022-08-03T05:54:11;100477.63;;;21.83;97.26
21779;BME280;11050;52.222;20.916;2022-08-03T05:56:37;100477.13;;;21.81;97.68
21779;BME280;11050;52.222;20.916;2022-08-03T05:59:05;100477.94;;;21.82;97.02
21779;BME280;11050;52.222;20.916;2022-08-03T06:01:31;100472.13;;;21.78;97.62
21779;BME280;11050;52.222;20.916;2022-08-03T06:03:58;100483.31;;;21.78;97.99
21779;BME280;11050;52.222;20.916;2022-08-03T06:06:24;100483.31;;;21.78;98.39
21779;BME280;11050;52.222;20.916;2022-08-03T06:08:50;100476.44;;;21.76;98.88
21779;BME280;11050;52.222;20.916;2022-08-03T06:11:15;100483.53;;;21.82;99.24
21779;BME280;11050;52.222;20.916;2022-08-03T06:13:42;100485.41;;;21.95;98.43
21779;BME280;11050;52.222;20.916;2022-08-03T06:16:08;100481.16;;;22.14;97.09
21779;BME280;11050;52.222;20.916;2022-08-03T06:18:35;100491.72;;;22.34;95.75
21779;BME280;11050;52.222;20.916;2022-08-03T06:21:01;100489.47;;;22.45;94.05
21779;BME280;11050;52.222;20.916;2022-08-03T06:23:27;100492.13;;;22.58;93.71
21779;BME280;11050;52.222;20.916;2022-08-03T06:25:53;100496.25;;;22.70;92.71
21779;BME280;11050;52.222;20.916;2022-08-03T06:28:19;100489.34;;;22.76;92.32
21779;BME280;11050;52.222;20.916;2022-08-03T06:30:45;100489.84;;;22.78;91.82
21779;BME280;11050;52.222;20.916;2022-08-03T06:33:11;100491.63;;;22.82;91.29
21779;BME280;11050;52.222;20.916;2022-08-03T06:35:37;100494.59;;;22.94;90.49
21779;BME280;11050;52.222;20.916;2022-08-03T06:38:03;100491.63;;;23.08;89.66
21779;BME280;11050;52.222;20.916;2022-08-03T06:40:29;100491.44;;;23.13;88.97
21779;BME280;11050;52.222;20.916;2022-08-03T06:43:00;100494.53;;;23.20;88.95
21779;BME280;11050;52.222;20.916;2022-08-03T06:45:27;100496.03;;;23.26;88.34
21779;BME280;11050;52.222;20.916;2022-08-03T06:48:04;100493.84;;;23.40;87.60
21779;BME280;11050;52.222;20.916;2022-08-03T06:50:32;100497.94;;;23.60;86.60
21779;BME280;11050;52.222;20.916;2022-08-03T06:52:58;100487.81;;;23.76;84.98
21779;BME280;11050;52.222;20.916;2022-08-03T06:55:25;100497.28;;;23.92;83.58
21779;BME280;11050;52.222;20.916;2022-08-03T06:57:51;100494.09;;;24.10;82.66
21779;BME280;11050;52.222;20.916;2022-08-03T07:00:17;100495.69;;;24.20;82.23
21779;BME280;11050;52.222;20.916;2022-08-03T07:02:44;100492.84;;;24.28;81.63
21779;BME280;11050;52.222;20.916;2022-08-03T07:05:10;100493.13;;;24.35;80.70
21779;BME280;11050;52.222;20.916;2022-08-03T07:07:37;100501.94;;;24.46;80.25
21779;BME280;11050;52.222;20.916;2022-08-03T07:10:04;100508.28;;;24.64;79.76
21779;BME280;11050;52.222;20.916;2022-08-03T07:12:32;100515.41;;;24.82;78.23
21779;BME280;11050;52.222;20.916;2022-08-03T07:15:01;100514.38;;;25.07;77.36
21779;BME280;11050;52.222;20.916;2022-08-03T07:17:29;100516.59;;;25.34;77.66
21779;BME280;11050;52.222;20.916;2022-08-03T07:19:55;100508.38;;;25.62;73.76
21779;BME280;11050;52.222;20.916;2022-08-03T07:22:21;100511.56;;;25.84;72.34
21779;BME280;11050;52.222;20.916;2022-08-03T07:24:47;100511.34;;;26.13;69.94
21779;BME280;11050;52.222;20.916;2022-08-03T07:27:14;100514.88;;;26.35;70.13
21779;BME280;11050;52.222;20.916;2022-08-03T07:29:41;100516.94;;;26.62;68.24
21779;BME280;11050;52.222;20.916;2022-08-03T07:32:07;100519.81;;;27.01;66.82
21779;BME280;11050;52.222;20.916;2022-08-03T07:34:32;100513.66;;;27.39;63.10
21779;BME280;11050;52.222;20.916;2022-08-03T07:36:58;100512.59;;;27.59;60.89
21779;BME280;11050;52.222;20.916;2022-08-03T07:39:24;100516.78;;;27.65;59.52
21779;BME280;11050;52.222;20.916;2022-08-03T07:41:50;100515.78;;;27.89;58.78
21779;BME280;11050;52.222;20.916;2022-08-03T07:44:17;100515.66;;;28.13;56.53
21779;BME280;11050;52.222;20.916;2022-08-03T07:46:44;100509.41;;;28.23;56.06
21779;BME280;11050;52.222;20.916;2022-08-03T07:49:10;100517.03;;;28.38;56.83
21779;BME280;11050;52.222;20.916;2022-08-03T07:51:36;100522.59;;;28.66;54.62
21779;BME280;11050;52.222;20.916;2022-08-03T07:54:02;100522.19;;;28.83;53.73
21779;BME280;11050;52.222;20.916;2022-08-03T07:56:28;100524.63;;;28.84;51.55
21779;BME280;11050;52.222;20.916;2022-08-03T07:58:55;100519.94;;;28.92;49.20
21779;BME280;11050;52.222;20.916;2022-08-03T08:01:22;100518.59;;;29.05;48.94
21779;BME280;11050;52.222;20.916;2022-08-03T08:03:49;100523.00;;;29.22;47.26
21779;BME280;11050;52.222;20.916;2022-08-03T08:06:16;100520.22;;;29.44;46.83
21779;BME280;11050;52.222;20.916;2022-08-03T08:08:42;100522.69;;;29.46;44.68
21779;BME280;11050;52.222;20.916;2022-08-03T08:11:08;100529.63;;;29.48;46.04
21779;BME280;11050;52.222;20.916;2022-08-03T08:13:34;100526.41;;;29.50;45.05
21779;BME280;11050;52.222;20.916;2022-08-03T08:16:02;100520.38;;;29.32;45.14
21779;BME280;11050;52.222;20.916;2022-08-03T08:18:28;100527.41;;;29.19;45.28
21779;BME280;11050;52.222;20.916;2022-08-03T08:20:57;100534.59;;;29.13;46.02
21779;BME280;11050;52.222;20.916;2022-08-03T08:23:23;100531.97;;;28.89;47.67
21779;BME280;11050;52.222;20.916;2022-08-03T08:25:52;100537.13;;;28.49;47.14
21779;BME280;11050;52.222;20.916;2022-08-03T08:28:21;100535.06;;;28.15;47.57
21779;BME280;11050;52.222;20.916;2022-08-03T08:30:48;100520.00;;;27.95;49.13
21779;BME280;11050;52.222;20.916;2022-08-03T08:33:14;100536.50;;;27.77;50.51
21779;BME280;11050;52.222;20.916;2022-08-03T08:35:39;100532.28;;;27.71;50.17
21779;BME280;11050;52.222;20.916;2022-08-03T08:38:05;100528.19;;;27.69;51.63
21779;BME280;11050;52.222;20.916;2022-08-03T08:40:31;100527.00;;;27.70;52.69
21779;BME280;11050;52.222;20.916;2022-08-03T08:42:57;100523.38;;;27.85;51.81
21779;BME280;11050;52.222;20.916;2022-08-03T08:45:23;100531.25;;;28.07;50.27
21779;BME280;11050;52.222;20.916;2022-08-03T08:47:49;100529.50;;;28.18;48.82
21779;BME280;11050;52.222;20.916;2022-08-03T08:50:20;100528.03;;;28.24;47.54
21779;BME280;11050;52.222;20.916;2022-08-03T08:52:49;100526.91;;;28.29;45.12
21779;BME280;11050;52.222;20.916;2022-08-03T08:55:22;100528.66;;;28.33;43.91
21779;BME280;11050;52.222;20.916;2022-08-03T08:57:52;100537.03;;;28.45;45.09
21779;BME280;11050;52.222;20.916;2022-08-03T09:00:20;100533.16;;;28.69;45.43
21779;BME280;11050;52.222;20.916;2022-08-03T09:02:46;100533.03;;;28.81;43.99
21779;BME280;11050;52.222;20.916;2022-08-03T09:05:19;100527.38;;;28.81;42.75
21779;BME280;11050;52.222;20.916;2022-08-03T09:07:46;100534.47;;;28.90;43.66
21779;BME280;11050;52.222;20.916;2022-08-03T09:10:16;100534.16;;;28.95;42.83
21779;BME280;11050;52.222;20.916;2022-08-03T09:12:49;100535.34;;;28.94;41.36
21779;BME280;11050;52.222;20.916;2022-08-03T09:17:51;100535.59;;;29.05;42.13
21779;BME280;11050;52.222;20.916;2022-08-03T09:20:19;100540.25;;;29.13;41.30
21779;BME280;11050;52.222;20.916;2022-08-03T09:25:35;100533.03;;;29.00;41.62
21779;BME280;11050;52.222;20.916;2022-08-03T09:28:12;100532.69;;;29.02;41.79
21779;BME280;11050;52.222;20.916;2022-08-03T09:30:41;100534.81;;;29.08;41.73
21779;BME280;11050;52.222;20.916;2022-08-03T09:33:11;100525.09;;;29.06;41.13
21779;BME280;11050;52.222;20.916;2022-08-03T09:35:45;100534.72;;;29.20;42.85
21779;BME280;11050;52.222;20.916;2022-08-03T09:38:15;100526.03;;;29.51;42.42
21779;BME280;11050;52.222;20.916;2022-08-03T09:40:43;100526.09;;;29.55;41.03
21779;BME280;11050;52.222;20.916;2022-08-03T09:43:10;100522.19;;;29.63;40.46
21779;BME280;11050;52.222;20.916;2022-08-03T09:45:39;100527.94;;;29.66;40.30
21779;BME280;11050;52.222;20.916;2022-08-03T09:50:53;100524.59;;;29.61;40.85
21779;BME280;11050;52.222;20.916;2022-08-03T09:53:20;100523.75;;;29.60;40.91
21779;BME280;11050;52.222;20.916;2022-08-03T09:56:04;100525.34;;;29.58;40.35
21779;BME280;11050;52.222;20.916;2022-08-03T09:58:30;100523.03;;;29.63;39.99
21779;BME280;11050;52.222;20.916;2022-08-03T10:01:05;100531.75;;;29.74;40.20
21779;BME280;11050;52.222;20.916;2022-08-03T10:03:35;100521.50;;;29.88;39.11
21779;BME280;11050;52.222;20.916;2022-08-03T10:06:19;100519.47;;;29.89;39.01
21779;BME280;11050;52.222;20.916;2022-08-03T10:08:45;100525.84;;;30.05;40.21
21779;BME280;11050;52.222;20.916;2022-08-03T10:11:11;100511.13;;;30.22;40.38
21779;BME280;11050;52.222;20.916;2022-08-03T10:13:53;100513.81;;;30.38;39.11
21779;BME280;11050;52.222;20.916;2022-08-03T10:16:19;100510.78;;;30.50;38.93
21779;BME280;11050;52.222;20.916;2022-08-03T10:18:45;100525.19;;;30.64;37.83
21779;BME280;11050;52.222;20.916;2022-08-03T10:21:16;100524.50;;;30.74;37.46
21779;BME280;11050;52.222;20.916;2022-08-03T10:23:44;100516.22;;;30.88;38.38
21779;BME280;11050;52.222;20.916;2022-08-03T10:26:15;100524.91;;;31.02;38.13
21779;BME280;11050;52.222;20.916;2022-08-03T10:28:49;100523.25;;;30.98;36.90
21779;BME280;11050;52.222;20.916;2022-08-03T10:31:19;100519.66;;;31.04;39.30
21779;BME280;11050;52.222;20.916;2022-08-03T10:33:49;100519.97;;;31.29;40.45
21779;BME280;11050;52.222;20.916;2022-08-03T10:36:16;100513.31;;;31.47;39.26
21779;BME280;11050;52.222;20.916;2022-08-03T10:38:47;100517.97;;;31.66;36.62
21779;BME280;11050;52.222;20.916;2022-08-03T10:41:20;100518.84;;;31.70;36.65
21779;BME280;11050;52.222;20.916;2022-08-03T10:44:08;100525.38;;;31.74;36.20
21779;BME280;11050;52.222;20.916;2022-08-03T10:46:38;100517.66;;;31.71;36.00
21779;BME280;11050;52.222;20.916;2022-08-03T10:49:05;100520.91;;;31.36;36.64
21779;BME280;11050;52.222;20.916;2022-08-03T10:51:32;100519.53;;;30.94;37.56
21779;BME280;11050;52.222;20.916;2022-08-03T10:53:59;100519.81;;;31.15;36.55
21779;BME280;11050;52.222;20.916;2022-08-03T11:02:10;100526.16;;;32.11;34.80
21779;BME280;11050;52.222;20.916;2022-08-03T11:04:38;100509.41;;;32.50;33.51
21779;BME280;11050;52.222;20.916;2022-08-03T11:07:23;100526.03;;;33.06;34.43
21779;BME280;11050;52.222;20.916;2022-08-03T11:09:54;100525.25;;;33.16;32.79
21779;BME280;11050;52.222;20.916;2022-08-03T11:12:29;100518.09;;;33.50;32.05
21779;BME280;11050;52.222;20.916;2022-08-03T11:14:59;100522.22;;;33.88;31.50
21779;BME280;11050;52.222;20.916;2022-08-03T11:17:25;100511.25;;;34.04;31.00
21779;BME280;11050;52.222;20.916;2022-08-03T11:19:52;100505.91;;;33.74;31.79
21779;BME280;11050;52.222;20.916;2022-08-03T11:22:20;100516.75;;;33.26;32.05
21779;BME280;11050;52.222;20.916;2022-08-03T11:27:26;100512.88;;;34.19;30.70
21779;BME280;11050;52.222;20.916;2022-08-03T11:35:31;100509.19;;;35.68;28.30
21779;BME280;11050;52.222;20.916;2022-08-03T11:40:42;100506.81;;;36.59;26.62
21779;BME280;11050;52.222;20.916;2022-08-03T11:46:08;100507.59;;;37.90;26.16
21779;BME280;11050;52.222;20.916;2022-08-03T11:48:49;100496.34;;;38.49;27.14
21779;BME280;11050;52.222;20.916;2022-08-03T11:51:28;100499.88;;;39.39;25.12
21779;BME280;11050;52.222;20.916;2022-08-03T11:53:59;100506.28;;;39.82;24.26
21779;BME280;11050;52.222;20.916;2022-08-03T11:56:27;100498.59;;;40.11;22.77
21779;BME280;11050;52.222;20.916;2022-08-03T11:58:56;100502.56;;;40.33;22.05
21779;BME280;11050;52.222;20.916;2022-08-03T12:01:24;100498.38;;;40.50;20.99
21779;BME280;11050;52.222;20.916;2022-08-03T12:03:51;100503.81;;;40.48;21.11
21779;BME280;11050;52.222;20.916;2022-08-03T12:06:18;100509.59;;;40.48;21.57
21779;BME280;11050;52.222;20.916;2022-08-03T12:08:45;100493.25;;;40.58;21.04
21779;BME280;11050;52.222;20.916;2022-08-03T12:11:15;100494.19;;;40.84;20.66
21779;BME280;11050;52.222;20.916;2022-08-03T12:13:49;100492.72;;;41.20;20.69
21779;BME280;11050;52.222;20.916;2022-08-03T12:16:22;100494.41;;;41.46;20.11
21779;BME280;11050;52.222;20.916;2022-08-03T12:19:04;100491.06;;;41.73;19.72
21779;BME280;11050;52.222;20.916;2022-08-03T12:21:31;100487.16;;;42.05;20.91
21779;BME280;11050;52.222;20.916;2022-08-03T12:24:04;100487.56;;;42.28;20.10
21779;BME280;11050;52.222;20.916;2022-08-03T12:26:50;100498.22;;;42.66;19.72
21779;BME280;11050;52.222;20.916;2022-08-03T12:29:21;100493.09;;;43.04;19.02
21779;BME280;11050;52.222;20.916;2022-08-03T12:31:47;100503.41;;;43.48;18.43
21779;BME280;11050;52.222;20.916;2022-08-03T12:34:14;100487.66;;;43.89;18.63
21779;BME280;11050;52.222;20.916;2022-08-03T12:36:52;100492.75;;;43.97;18.17
21779;BME280;11050;52.222;20.916;2022-08-03T12:39:23;100498.28;;;43.92;17.97
21779;BME280;11050;52.222;20.916;2022-08-03T12:41:53;100490.19;;;44.08;18.04
21779;BME280;11050;52.222;20.916;2022-08-03T12:44:33;100497.19;;;43.89;17.67
21779;BME280;11050;52.222;20.916;2022-08-03T12:47:01;100483.06;;;42.96;18.45
21779;BME280;11050;52.222;20.916;2022-08-03T12:49:27;100486.16;;;43.01;17.76
21779;BME280;11050;52.222;20.916;2022-08-03T12:51:54;100483.28;;;43.45;17.66
21779;BME280;11050;52.222;20.916;2022-08-03T12:54:24;100470.91;;;43.75;17.75
21779;BME280;11050;52.222;20.916;2022-08-03T12:57:09;100479.47;;;43.87;17.50
21779;BME280;11050;52.222;20.916;2022-08-03T12:59:38;100474.00;;;43.89;17.66
21779;BME280;11050;52.222;20.916;2022-08-03T13:02:18;100467.00;;;44.17;17.45
21779;BME280;11050;52.222;20.916;2022-08-03T13:04:45;100472.50;;;44.34;17.64
21779;BME280;11050;52.222;20.916;2022-08-03T13:07:13;100459.34;;;44.51;17.24
21779;BME280;11050;52.222;20.916;2022-08-03T13:09:55;100460.81;;;44.91;16.75
21779;BME280;11050;52.222;20.916;2022-08-03T13:12:27;100458.38;;;44.90;16.79
21779;BME280;11050;52.222;20.916;2022-08-03T13:14:59;100471.31;;;44.80;16.79
21779;BME280;11050;52.222;20.916;2022-08-03T13:17:26;100467.75;;;44.85;17.28
21779;BME280;11050;52.222;20.916;2022-08-03T13:19:52;100457.50;;;44.26;17.63